Time;durP1;ratioP1;P1;durP2;ratioP2;P2;SDS_P1;SDS_P2;PMS_P1;PMS_P2;Temp;Humidity;BMP_temperature;BMP_pressure;BME280_temperature;BME280_humidity;BME280_pressure;Samples;Min_cycle;Max_cycle;Signal;HPM_P1;HPM_P2
2023/12/28 00:00:30;;;;;;;6.13;3.05;;;10.00;99.90;;;;;;5064422;28;20083;-50
2023/12/28 00:02:56;;;;;;;6.70;3.05;;;10.00;99.90;;;;;;5065288;28;20418;-50
2023/12/28 00:05:22;;;;;;;5.90;3.13;;;10.00;99.90;;;;;;5063791;28;20036;-49
2023/12/28 00:07:47;;;;;;;5.13;3.10;;;10.00;99.90;;;;;;5062568;28;20495;-50
2023/12/28 00:10:13;;;;;;;4.25;3.15;;;10.00;99.90;;;;;;5055370;28;20036;-52
2023/12/28 00:12:39;;;;;;;7.75;3.30;;;10.00;99.90;;;;;;5058162;28;20040;-52
2023/12/28 00:15:05;;;;;;;6.35;3.13;;;10.00;99.90;;;;;;5063791;28;20410;-50
2023/12/28 00:17:31;;;;;;;5.82;3.17;;;10.00;99.90;;;;;;5050786;28;20182;-51
2023/12/28 00:19:56;;;;;;;6.70;3.08;;;10.00;99.90;;;;;;5055882;28;20053;-49
2023/12/28 00:22:22;;;;;;;4.50;2.88;;;10.00;99.90;;;;;;5063836;28;20537;-53
2023/12/28 00:24:48;;;;;;;3.92;3.20;;;10.00;99.90;;;;;;5053345;28;20861;-52
2023/12/28 00:27:14;;;;;;;3.83;2.70;;;10.00;99.90;;;;;;5053301;28;20044;-50
2023/12/28 00:29:41;;;;;;;6.68;3.00;;;10.00;99.90;;;;;;5046368;28;20116;-52
2023/12/28 00:32:07;;;;;;;9.40;3.05;;;10.00;99.90;;;;;;5064684;28;20316;-51
2023/12/28 00:34:33;;;;;;;6.35;3.42;;;10.00;99.90;;;;;;5063038;28;20044;-51
2023/12/28 00:36:58;;;;;;;4.40;2.80;;;10.00;99.90;;;;;;5059818;28;20644;-49
2023/12/28 00:39:24;;;;;;;8.63;3.53;;;10.00;99.90;;;;;;5063873;28;20079;-54
2023/12/28 00:41:50;;;;;;;6.88;3.40;;;10.00;99.90;;;;;;5062173;28;20387;-49
2023/12/28 00:44:15;;;;;;;8.38;3.28;;;10.00;99.90;;;;;;5061592;28;20574;-49
2023/12/28 00:46:41;;;;;;;5.68;3.20;;;10.00;99.90;;;;;;5061366;28;20593;-50
2023/12/28 00:49:08;;;;;;;4.13;2.92;;;10.10;99.90;;;;;;5059502;28;20044;-50
2023/12/28 00:51:34;;;;;;;15.88;4.32;;;10.10;99.90;;;;;;5053749;28;20138;-51
2023/12/28 00:54:00;;;;;;;7.28;3.30;;;10.10;99.90;;;;;;5064297;28;20465;-50
2023/12/28 00:56:25;;;;;;;9.80;3.33;;;10.10;99.90;;;;;;5054689;28;20065;-50
2023/12/28 00:58:51;;;;;;;9.52;3.65;;;10.10;99.90;;;;;;5059362;28;20597;-56
2023/12/28 01:01:17;;;;;;;9.98;3.28;;;10.00;99.90;;;;;;5062635;28;20036;-49
2023/12/28 01:03:43;;;;;;;8.05;3.22;;;10.10;99.90;;;;;;5061964;28;20503;-51
2023/12/28 01:06:08;;;;;;;8.18;2.83;;;10.10;99.90;;;;;;5060041;28;20047;-49
2023/12/28 01:08:34;;;;;;;10.73;3.45;;;10.10;99.90;;;;;;5058509;28;20040;-49
2023/12/28 01:11:01;;;;;;;8.23;3.30;;;10.10;99.90;;;;;;5064110;28;20040;-52
2023/12/28 01:13:28;;;;;;;11.25;3.53;;;10.10;99.90;;;;;;5060086;28;20834;-51
2023/12/28 01:15:54;;;;;;;11.23;4.00;;;10.10;99.90;;;;;;5043031;28;20074;-51
2023/12/28 01:18:20;;;;;;;8.43;3.00;;;10.10;99.90;;;;;;5063028;28;20036;-48
2023/12/28 01:20:46;;;;;;;11.32;3.20;;;10.10;99.90;;;;;;5059789;28;20222;-52
2023/12/28 01:23:12;;;;;;;8.73;3.28;;;10.10;99.90;;;;;;5063640;28;20538;-49
2023/12/28 01:25:37;;;;;;;9.73;3.58;;;10.00;99.90;;;;;;5059287;28;20076;-49
2023/12/28 01:28:04;;;;;;;9.82;3.20;;;10.10;99.90;;;;;;5061352;28;20040;-49
2023/12/28 01:30:30;;;;;;;8.30;3.05;;;10.00;99.90;;;;;;5062756;28;20044;-52
2023/12/28 01:32:56;;;;;;;5.88;2.92;;;10.00;99.90;;;;;;5057695;28;20162;-50
2023/12/28 01:35:21;;;;;;;10.98;3.53;;;9.90;99.90;;;;;;5059213;28;20032;-49
2023/12/28 01:37:47;;;;;;;9.18;2.78;;;10.00;99.90;;;;;;5058337;28;20450;-50
2023/12/28 01:40:13;;;;;;;10.90;3.75;;;10.00;99.90;;;;;;5061783;28;20083;-48
2023/12/28 01:42:39;;;;;;;11.48;3.33;;;9.90;99.90;;;;;;5055875;28;20096;-49
2023/12/28 01:45:05;;;;;;;12.45;3.10;;;10.00;99.90;;;;;;5057040;28;20068;-50
2023/12/28 01:47:31;;;;;;;7.50;3.00;;;10.00;99.90;;;;;;5057367;28;20074;-50
2023/12/28 01:49:58;;;;;;;9.30;3.58;;;9.90;99.90;;;;;;5061053;28;20041;-52
2023/12/28 01:52:24;;;;;;;13.63;3.80;;;10.00;99.90;;;;;;5062792;28;20048;-51
2023/12/28 01:54:50;;;;;;;14.13;3.00;;;10.00;99.90;;;;;;5062181;28;20268;-52
2023/12/28 01:57:16;;;;;;;8.95;3.67;;;10.00;99.90;;;;;;5060796;28;20038;-51
2023/12/28 01:59:43;;;;;;;11.55;3.40;;;10.00;99.90;;;;;;5060498;28;20043;-52
2023/12/28 02:02:09;;;;;;;15.20;3.65;;;10.10;99.90;;;;;;5062912;28;20793;-50
2023/12/28 02:04:35;;;;;;;12.95;3.42;;;10.00;99.90;;;;;;5060530;28;20079;-53
2023/12/28 02:07:01;;;;;;;16.73;3.83;;;10.00;99.90;;;;;;5061841;28;20111;-53
2023/12/28 02:09:27;;;;;;;9.70;3.22;;;10.00;99.90;;;;;;5060898;28;20486;-50
2023/12/28 02:11:54;;;;;;;13.43;3.22;;;10.00;99.90;;;;;;5060390;28;20044;-51
2023/12/28 02:14:21;;;;;;;12.05;3.08;;;10.00;99.90;;;;;;5061163;28;20107;-51
2023/12/28 02:16:54;;;;;;;9.63;3.67;;;10.00;99.90;;;;;;5059612;28;20041;-53
2023/12/28 02:19:38;;;;;;;12.02;3.63;;;10.00;99.90;;;;;;5056360;28;20036;-52
2023/12/28 02:22:05;;;;;;;15.15;3.15;;;10.00;99.90;;;;;;5061634;28;20043;-49
2023/12/28 02:24:30;;;;;;;11.02;3.47;;;10.00;99.90;;;;;;5059674;28;20040;-53
2023/12/28 02:26:56;;;;;;;11.85;3.45;;;10.00;99.90;;;;;;5059724;28;20882;-52
2023/12/28 02:29:22;;;;;;;9.27;3.45;;;10.10;99.90;;;;;;5061005;28;20059;-49
2023/12/28 02:32:03;;;;;;;7.65;3.20;;;10.10;99.90;;;;;;5040379;28;20067;-50
2023/12/28 02:34:35;;;;;;;11.10;3.25;;;10.10;99.90;;;;;;5057821;28;20052;-53
2023/12/28 02:37:02;;;;;;;14.73;3.30;;;10.10;99.90;;;;;;5054881;28;20040;-49
2023/12/28 02:39:30;;;;;;;11.70;3.00;;;10.00;99.90;;;;;;5059897;28;20075;-53
2023/12/28 02:41:56;;;;;;;11.75;3.50;;;10.10;99.90;;;;;;5057722;28;20498;-52
2023/12/28 02:44:22;;;;;;;16.35;3.70;;;10.10;99.90;;;;;;5044145;28;20045;-47
2023/12/28 02:46:47;;;;;;;11.95;3.15;;;10.10;99.90;;;;;;5054958;28;20549;-51
2023/12/28 02:49:15;;;;;;;12.60;3.50;;;10.10;99.90;;;;;;5051920;28;20098;-52
2023/12/28 02:51:42;;;;;;;12.32;3.38;;;10.10;99.90;;;;;;5059523;28;20060;-51
2023/12/28 02:54:08;;;;;;;11.60;2.65;;;10.20;99.90;;;;;;5060219;28;20548;-50
2023/12/28 02:56:34;;;;;;;12.45;3.15;;;10.20;99.90;;;;;;5061023;28;20067;-51
2023/12/28 02:59:00;;;;;;;11.30;2.97;;;10.20;99.90;;;;;;5059696;28;20348;-52
2023/12/28 03:01:26;;;;;;;9.35;2.63;;;10.20;99.90;;;;;;5061432;28;20036;-54
2023/12/28 03:03:51;;;;;;;12.85;2.88;;;10.30;99.90;;;;;;5061694;28;20580;-54
2023/12/28 03:06:17;;;;;;;13.55;3.05;;;10.30;99.90;;;;;;5058724;28;20067;-50
2023/12/28 03:08:43;;;;;;;11.50;2.60;;;10.30;99.90;;;;;;5060227;28;20047;-51
2023/12/28 03:11:08;;;;;;;13.65;3.28;;;10.40;99.90;;;;;;5060906;28;20491;-52
2023/12/28 03:13:34;;;;;;;14.00;4.10;;;10.40;99.90;;;;;;5043578;28;20075;-50
2023/12/28 03:16:00;;;;;;;11.98;3.67;;;10.50;99.90;;;;;;5042387;28;20033;-50
2023/12/28 03:18:26;;;;;;;10.43;3.13;;;10.50;99.90;;;;;;5054144;28;20044;-51
2023/12/28 03:20:51;;;;;;;11.38;2.90;;;10.50;99.90;;;;;;5030558;28;20036;-53
2023/12/28 03:23:17;;;;;;;9.75;3.10;;;10.60;99.90;;;;;;5051249;28;20596;-50
2023/12/28 03:25:43;;;;;;;13.02;3.00;;;10.60;99.90;;;;;;5055905;28;20044;-53
2023/12/28 03:28:08;;;;;;;10.77;3.38;;;10.60;99.90;;;;;;5057909;28;20122;-51
2023/12/28 03:30:34;;;;;;;9.38;2.90;;;10.70;99.90;;;;;;5058969;28;20546;-52
2023/12/28 03:33:00;;;;;;;11.15;2.63;;;10.60;99.90;;;;;;5053571;28;20037;-51
2023/12/28 03:35:25;;;;;;;11.90;2.50;;;10.70;99.90;;;;;;5051686;28;20098;-49
2023/12/28 03:37:51;;;;;;;12.50;3.08;;;10.70;99.90;;;;;;5060631;28;20036;-50
2023/12/28 03:40:17;;;;;;;13.60;2.75;;;10.70;99.90;;;;;;5058688;28;20040;-51
2023/12/28 03:42:44;;;;;;;10.38;2.80;;;10.70;99.90;;;;;;5055726;28;20036;-52
2023/12/28 03:45:10;;;;;;;12.95;3.15;;;10.70;99.90;;;;;;5060843;28;20075;-51
2023/12/28 03:47:35;;;;;;;11.40;2.97;;;10.70;99.90;;;;;;5061966;28;20648;-53
2023/12/28 03:50:01;;;;;;;16.35;3.60;;;10.80;99.90;;;;;;5056070;28;20040;-50
2023/12/28 03:52:29;;;;;;;9.93;2.72;;;10.70;99.90;;;;;;5061810;28;20036;-50
2023/12/28 03:54:55;;;;;;;14.65;2.70;;;10.70;99.90;;;;;;5058872;28;20037;-52
2023/12/28 03:57:21;;;;;;;6.13;2.35;;;10.70;99.90;;;;;;5061196;28;20040;-51
2023/12/28 03:59:47;;;;;;;12.88;3.00;;;10.80;99.90;;;;;;5060218;28;20124;-50
2023/12/28 04:02:13;;;;;;;6.85;2.63;;;10.80;99.90;;;;;;5057859;28;20043;-49
2023/12/28 04:04:39;;;;;;;10.50;2.38;;;10.80;99.90;;;;;;5061469;28;20040;-49
2023/12/28 04:07:07;;;;;;;9.40;2.70;;;10.80;99.90;;;;;;5058869;28;20049;-52
2023/12/28 04:09:33;;;;;;;12.68;3.53;;;10.80;99.90;;;;;;5052238;28;20142;-50
2023/12/28 04:11:59;;;;;;;10.77;2.45;;;10.80;99.90;;;;;;5058215;28;20116;-49
2023/12/28 04:14:25;;;;;;;13.98;2.63;;;10.90;99.90;;;;;;5051705;28;20371;-55
2023/12/28 04:16:50;;;;;;;12.93;2.90;;;10.90;99.90;;;;;;5060329;28;20127;-50
2023/12/28 04:19:16;;;;;;;15.13;4.00;;;10.90;99.90;;;;;;5061997;28;20145;-58
2023/12/28 04:21:45;;;;;;;10.55;2.70;;;10.90;99.90;;;;;;5063570;28;20070;-52
2023/12/28 04:24:11;;;;;;;12.52;2.80;;;10.90;99.90;;;;;;5062859;28;20115;-52
2023/12/28 04:26:36;;;;;;;13.88;3.25;;;10.90;99.90;;;;;;5064585;28;20421;-51
2023/12/28 04:29:02;;;;;;;13.77;3.20;;;10.90;99.90;;;;;;5060826;28;20447;-51
2023/12/28 04:31:28;;;;;;;14.27;2.83;;;10.90;99.90;;;;;;5062281;28;20507;-51
2023/12/28 04:33:54;;;;;;;8.88;2.78;;;10.90;99.90;;;;;;5061873;28;20041;-51
2023/12/28 04:36:20;;;;;;;12.75;2.95;;;10.90;99.90;;;;;;5063565;28;20032;-53
2023/12/28 04:38:46;;;;;;;15.48;3.20;;;10.90;99.90;;;;;;5058192;28;20040;-55
2023/12/28 04:41:11;;;;;;;18.27;3.05;;;10.90;99.90;;;;;;5063182;28;20592;-52
2023/12/28 04:43:38;;;;;;;12.13;2.60;;;10.90;99.90;;;;;;5062931;28;20047;-52
2023/12/28 04:46:04;;;;;;;15.90;2.65;;;10.90;99.90;;;;;;5058697;28;20033;-52
2023/12/28 04:48:31;;;;;;;13.88;3.00;;;10.90;99.90;;;;;;5060221;28;20598;-51
2023/12/28 04:50:57;;;;;;;11.50;2.33;;;11.00;99.90;;;;;;5061941;28;20032;-52
2023/12/28 04:53:23;;;;;;;9.70;2.35;;;11.10;99.90;;;;;;5062434;28;20517;-52
2023/12/28 04:55:48;;;;;;;13.32;2.55;;;11.10;99.90;;;;;;5057715;28;20032;-52
2023/12/28 04:58:14;;;;;;;15.73;2.70;;;11.10;99.90;;;;;;5056776;28;20120;-52
2023/12/28 05:00:40;;;;;;;20.67;2.95;;;11.10;99.90;;;;;;5051610;28;20829;-50
2023/12/28 05:03:06;;;;;;;11.65;3.08;;;11.10;99.90;;;;;;5055667;28;20040;-53
2023/12/28 05:05:32;;;;;;;8.13;2.38;;;11.10;99.90;;;;;;5052196;28;21183;-51
2023/12/28 05:07:58;;;;;;;19.92;3.63;;;11.10;99.90;;;;;;5047960;28;20487;-51
2023/12/28 05:10:24;;;;;;;10.48;3.15;;;11.00;99.90;;;;;;5050899;28;20048;-51
2023/12/28 05:12:49;;;;;;;21.35;4.10;;;11.10;99.90;;;;;;5062967;28;20051;-53
2023/12/28 05:15:15;;;;;;;16.83;2.78;;;11.10;99.90;;;;;;5058542;28;20382;-49
2023/12/28 05:17:41;;;;;;;10.50;2.50;;;11.10;99.90;;;;;;5061980;28;20051;-51
2023/12/28 05:20:07;;;;;;;14.90;3.28;;;11.00;99.90;;;;;;5063927;28;20131;-49
2023/12/28 05:22:33;;;;;;;13.98;3.80;;;11.00;99.90;;;;;;5063719;28;20044;-50
2023/12/28 05:24:59;;;;;;;12.05;2.78;;;11.00;99.90;;;;;;5061421;28;20048;-51
2023/12/28 05:27:25;;;;;;;14.15;3.15;;;11.00;99.90;;;;;;5061816;28;20489;-51
2023/12/28 05:29:50;;;;;;;14.18;2.72;;;11.00;99.90;;;;;;5054611;28;20029;-51
2023/12/28 05:32:16;;;;;;;16.88;2.90;;;11.00;99.90;;;;;;5060888;28;20032;-52
2023/12/28 05:34:42;;;;;;;16.13;3.75;;;11.00;99.90;;;;;;5059685;28;20048;-52
2023/12/28 05:37:08;;;;;;;15.57;2.47;;;11.00;99.90;;;;;;5062134;28;20070;-50
2023/12/28 05:39:33;;;;;;;15.27;3.80;;;10.90;99.90;;;;;;5059134;28;20522;-51
2023/12/28 05:41:59;;;;;;;14.68;2.95;;;11.00;99.90;;;;;;5061030;28;20041;-51
2023/12/28 05:44:25;;;;;;;21.85;3.45;;;11.00;99.90;;;;;;5059962;28;20094;-50
2023/12/28 05:46:52;;;;;;;17.13;4.15;;;11.10;99.90;;;;;;5059512;28;20079;-51
2023/12/28 05:49:18;;;;;;;20.08;3.50;;;11.10;99.90;;;;;;5060957;28;20174;-52
2023/12/28 05:51:44;;;;;;;21.23;3.42;;;11.10;99.90;;;;;;5054595;28;20421;-50
2023/12/28 05:54:10;;;;;;;14.88;3.13;;;11.10;99.90;;;;;;5060872;28;20119;-52
2023/12/28 05:56:36;;;;;;;11.23;2.33;;;11.10;99.90;;;;;;5059998;28;20067;-57
2023/12/28 05:59:01;;;;;;;16.23;3.08;;;11.10;99.90;;;;;;5061170;28;20036;-52
2023/12/28 06:01:27;;;;;;;15.32;2.80;;;11.00;99.90;;;;;;5060002;28;20076;-54
2023/12/28 06:03:53;;;;;;;13.50;3.33;;;11.10;99.90;;;;;;5059714;28;20036;-52
2023/12/28 06:06:20;;;;;;;17.88;3.85;;;11.00;99.90;;;;;;5061161;28;20033;-52
2023/12/28 06:08:46;;;;;;;20.92;4.15;;;11.00;99.90;;;;;;5058101;28;20064;-50
2023/12/28 06:11:12;;;;;;;15.25;3.42;;;11.00;99.90;;;;;;5054706;28;20442;-53
2023/12/28 06:13:38;;;;;;;12.82;2.72;;;11.00;99.90;;;;;;5057935;28;20904;-51
2023/12/28 06:16:04;;;;;;;22.40;3.70;;;10.80;99.90;;;;;;5058488;28;20028;-50
2023/12/28 06:18:29;;;;;;;13.90;2.63;;;11.00;99.90;;;;;;5063214;28;20048;-52
2023/12/28 06:20:55;;;;;;;16.10;3.38;;;11.00;99.90;;;;;;5057713;28;20506;-50
2023/12/28 06:23:21;;;;;;;13.40;4.18;;;11.00;99.90;;;;;;5062740;28;20222;-49
2023/12/28 06:25:47;;;;;;;12.75;3.22;;;11.00;99.90;;;;;;5049045;28;20063;-52
2023/12/28 06:28:12;;;;;;;22.52;3.10;;;11.00;99.90;;;;;;5048649;28;20076;-50
2023/12/28 06:30:39;;;;;;;16.08;3.42;;;11.00;99.90;;;;;;5052616;28;20044;-54
2023/12/28 06:33:05;;;;;;;19.40;3.22;;;11.10;99.90;;;;;;5057414;28;20060;-53
2023/12/28 06:35:31;;;;;;;17.05;3.65;;;11.00;99.90;;;;;;5052808;28;20036;-50
2023/12/28 06:37:57;;;;;;;13.57;3.28;;;11.00;99.90;;;;;;5055392;28;20037;-52
2023/12/28 06:40:23;;;;;;;17.75;2.58;;;11.10;99.90;;;;;;5061266;28;20123;-52
2023/12/28 06:42:48;;;;;;;16.52;3.50;;;11.10;99.90;;;;;;5061083;28;20406;-51
2023/12/28 06:45:14;;;;;;;18.63;3.60;;;11.10;99.90;;;;;;5042397;28;20070;-52
2023/12/28 06:47:40;;;;;;;16.13;2.90;;;11.10;99.90;;;;;;5033040;28;20368;-49
2023/12/28 06:50:06;;;;;;;18.73;3.40;;;11.20;99.90;;;;;;5059890;28;20044;-49
2023/12/28 06:52:32;;;;;;;17.70;3.15;;;11.20;99.90;;;;;;5061353;28;20051;-49
2023/12/28 06:54:59;;;;;;;17.27;3.40;;;11.20;99.90;;;;;;5049869;28;20037;-49
2023/12/28 06:57:24;;;;;;;9.88;2.53;;;11.10;99.90;;;;;;5061859;28;20438;-49
2023/12/28 06:59:50;;;;;;;20.52;3.58;;;11.20;99.90;;;;;;5059471;28;20036;-49
2023/12/28 07:02:16;;;;;;;19.83;3.08;;;11.20;99.90;;;;;;5057401;28;20037;-52
2023/12/28 07:04:41;;;;;;;20.80;3.38;;;11.20;99.90;;;;;;5059807;28;20052;-52
2023/12/28 07:07:07;;;;;;;16.63;4.07;;;11.20;99.90;;;;;;5056768;28;20364;-49
2023/12/28 07:09:33;;;;;;;18.35;3.80;;;11.20;99.90;;;;;;5060861;28;20357;-49
2023/12/28 07:11:59;;;;;;;16.85;3.05;;;11.20;99.90;;;;;;5036824;28;20079;-50
2023/12/28 07:14:25;;;;;;;14.75;3.40;;;11.30;99.90;;;;;;5057008;28;20048;-53
2023/12/28 07:16:51;;;;;;;23.02;4.18;;;11.30;99.90;;;;;;5059835;28;20101;-49
2023/12/28 07:19:16;;;;;;;21.10;3.58;;;11.30;99.90;;;;;;5061488;28;20489;-50
2023/12/28 07:21:42;;;;;;;17.30;3.47;;;11.30;99.90;;;;;;5059159;28;20487;-52
2023/12/28 07:24:08;;;;;;;18.85;3.65;;;11.30;99.90;;;;;;5053236;28;20055;-52
2023/12/28 07:26:33;;;;;;;22.67;3.92;;;11.20;99.90;;;;;;5039943;28;20041;-53
2023/12/28 07:28:59;;;;;;;17.95;4.75;;;11.20;99.90;;;;;;5058092;28;20097;-50
2023/12/28 07:31:26;;;;;;;21.92;3.97;;;11.20;99.90;;;;;;5052180;28;20474;-50
2023/12/28 07:33:52;;;;;;;15.15;3.15;;;11.10;99.90;;;;;;5060377;28;20374;-53
2023/12/28 07:36:17;;;;;;;21.67;4.38;;;11.10;99.90;;;;;;5057053;28;20757;-49
2023/12/28 07:38:44;;;;;;;21.60;4.03;;;11.10;99.90;;;;;;5059144;28;20072;-50
2023/12/28 07:41:09;;;;;;;20.05;3.85;;;11.30;99.90;;;;;;5061378;28;20040;-53
2023/12/28 07:43:36;;;;;;;25.65;4.00;;;11.20;99.90;;;;;;5058598;28;20041;-50
2023/12/28 07:46:02;;;;;;;15.00;3.47;;;11.20;99.90;;;;;;5061092;28;20044;-52
2023/12/28 07:48:30;;;;;;;19.60;3.83;;;11.20;99.90;;;;;;5062309;28;20041;-53
2023/12/28 07:50:56;;;;;;;22.50;4.55;;;11.10;99.90;;;;;;5041675;28;20059;-52
2023/12/28 07:53:22;;;;;;;22.38;4.60;;;11.20;99.90;;;;;;5065419;28;20033;-51
2023/12/28 07:55:48;;;;;;;23.40;4.28;;;11.20;99.90;;;;;;5064014;28;20746;-49
2023/12/28 07:58:15;;;;;;;27.23;4.00;;;11.20;99.90;;;;;;5064680;28;20358;-51
2023/12/28 08:00:40;;;;;;;25.45;3.90;;;11.20;99.90;;;;;;5061878;28;20898;-51
2023/12/28 08:03:06;;;;;;;22.38;4.68;;;11.20;99.90;;;;;;5064959;28;20089;-53
2023/12/28 08:05:32;;;;;;;21.42;4.60;;;11.20;99.90;;;;;;5065572;28;20040;-48
2023/12/28 08:07:58;;;;;;;30.20;4.72;;;11.30;99.90;;;;;;5065746;28;20513;-49
2023/12/28 08:10:23;;;;;;;33.65;5.60;;;11.30;99.90;;;;;;5062239;28;20405;-52
2023/12/28 08:12:49;;;;;;;25.02;4.28;;;11.40;99.90;;;;;;5065370;28;20135;-50
2023/12/28 08:15:15;;;;;;;26.42;4.07;;;11.40;99.90;;;;;;5063673;28;20070;-50
2023/12/28 08:17:41;;;;;;;28.05;5.38;;;11.40;99.90;;;;;;5064875;28;20387;-51
2023/12/28 08:20:07;;;;;;;32.53;5.32;;;11.40;99.90;;;;;;5061457;28;20081;-49
2023/12/28 08:22:33;;;;;;;28.83;4.93;;;11.40;99.90;;;;;;5056993;28;20060;-49
2023/12/28 08:24:59;;;;;;;24.33;5.55;;;11.50;99.90;;;;;;5056498;28;20040;-49
2023/12/28 08:27:24;;;;;;;31.73;5.13;;;11.50;99.90;;;;;;5057303;28;20477;-50
2023/12/28 08:29:50;;;;;;;20.30;4.65;;;11.50;99.90;;;;;;5062879;28;20459;-52
2023/12/28 08:32:17;;;;;;;27.75;4.68;;;11.50;99.90;;;;;;5059232;28;20033;-50
2023/12/28 08:34:43;;;;;;;17.20;3.97;;;11.50;99.90;;;;;;5057785;28;20127;-50
2023/12/28 08:37:09;;;;;;;32.70;4.88;;;11.60;99.90;;;;;;5046756;28;20225;-50
2023/12/28 08:39:35;;;;;;;21.73;5.30;;;11.50;99.90;;;;;;5046219;28;20036;-52
2023/12/28 08:42:01;;;;;;;26.45;4.63;;;11.50;99.90;;;;;;5065307;28;20047;-51
2023/12/28 08:44:26;;;;;;;26.98;5.47;;;11.50;99.90;;;;;;5046570;28;20032;-49
2023/12/28 08:46:52;;;;;;;24.17;4.15;;;11.50;99.90;;;;;;5065346;28;20486;-51
2023/12/28 08:49:18;;;;;;;28.50;5.53;;;11.50;99.90;;;;;;5056695;28;20036;-49
2023/12/28 08:51:44;;;;;;;30.90;5.35;;;11.60;99.90;;;;;;5051931;28;20460;-51
2023/12/28 08:54:10;;;;;;;31.48;4.53;;;11.60;99.90;;;;;;5056127;28;20040;-53
2023/12/28 08:56:35;;;;;;;32.63;6.05;;;11.60;99.90;;;;;;5053573;28;20040;-52
2023/12/28 08:59:01;;;;;;;20.27;4.63;;;11.50;99.90;;;;;;5058415;28;20079;-52
2023/12/28 09:01:29;;;;;;;25.38;4.85;;;11.50;99.90;;;;;;5052116;28;20124;-51
2023/12/28 09:03:55;;;;;;;29.48;5.47;;;11.50;99.90;;;;;;5063319;28;20079;-49
2023/12/28 09:06:21;;;;;;;31.45;5.40;;;11.60;99.90;;;;;;5063985;28;20055;-51
2023/12/28 09:08:50;;;;;;;26.15;5.55;;;11.60;99.90;;;;;;5063336;28;20044;-50
2023/12/28 09:11:16;;;;;;;29.38;5.47;;;11.60;99.90;;;;;;5063146;28;20043;-50
2023/12/28 09:13:42;;;;;;;28.65;5.70;;;11.60;99.90;;;;;;5064294;28;20099;-53
2023/12/28 09:16:10;;;;;;;31.08;5.88;;;11.60;99.90;;;;;;5063383;28;20593;-52
2023/12/28 09:18:37;;;;;;;32.67;6.32;;;11.60;99.90;;;;;;5063603;28;20525;-53
2023/12/28 09:21:04;;;;;;;29.75;5.93;;;11.70;99.90;;;;;;5063811;28;20440;-52
2023/12/28 09:23:31;;;;;;;31.48;4.97;;;11.60;99.90;;;;;;5061745;28;20443;-53
2023/12/28 09:25:58;;;;;;;34.33;4.70;;;11.70;99.90;;;;;;5058979;28;20040;-52
2023/12/28 09:28:24;;;;;;;35.42;6.93;;;11.60;99.90;;;;;;5057615;28;20036;-52
2023/12/28 09:30:49;;;;;;;25.77;5.70;;;11.70;99.90;;;;;;5060520;28;20110;-50
2023/12/28 09:33:16;;;;;;;28.65;5.63;;;11.70;99.90;;;;;;5060763;28;20060;-53
2023/12/28 09:35:42;;;;;;;29.92;5.05;;;11.70;99.90;;;;;;5063185;28;20021;-53
2023/12/28 09:38:08;;;;;;;25.65;4.78;;;11.70;99.90;;;;;;5063176;28;20441;-52
2023/12/28 09:40:36;;;;;;;25.52;5.00;;;11.70;99.90;;;;;;5057814;28;20045;-51
2023/12/28 09:43:27;;;;;;;23.50;4.68;;;11.70;99.90;;;;;;5063874;28;20127;-53
2023/12/28 09:45:57;;;;;;;30.55;5.03;;;11.70;99.90;;;;;;5058954;28;20036;-51
2023/12/28 09:48:22;;;;;;;27.40;4.65;;;11.60;99.90;;;;;;5063607;28;20032;-53
2023/12/28 09:50:55;;;;;;;30.23;5.00;;;11.70;99.90;;;;;;5063045;28;20063;-54
2023/12/28 09:53:25;;;;;;;26.63;4.97;;;11.60;99.90;;;;;;5063857;28;20091;-52
2023/12/28 09:55:51;;;;;;;35.92;5.05;;;11.60;99.90;;;;;;5063199;28;20046;-53
2023/12/28 09:58:19;;;;;;;26.75;5.47;;;11.60;99.90;;;;;;5055809;28;20045;-52
2023/12/28 10:00:48;;;;;;;27.13;4.43;;;11.60;99.90;;;;;;5055306;28;20047;-52
2023/12/28 10:03:14;;;;;;;;;;;11.60;99.90;;;;;;5055413;28;20047;-52
2023/12/28 10:05:45;;;;;;;27.05;5.15;;;11.60;99.90;;;;;;5063761;28;19928;-50
2023/12/28 10:08:15;;;;;;;24.20;5.82;;;11.60;99.90;;;;;;5058980;28;20046;-53
2023/12/28 10:10:42;;;;;;;32.40;5.45;;;11.60;99.90;;;;;;5056816;28;20048;-50
2023/12/28 10:13:09;;;;;;;22.50;4.57;;;11.60;99.90;;;;;;5044786;28;20491;-50
2023/12/28 10:15:36;;;;;;;32.70;5.13;;;11.70;99.90;;;;;;5061577;28;20036;-48
2023/12/28 10:18:02;;;;;;;32.08;4.88;;;11.70;99.90;;;;;;5051773;28;20037;-51
2023/12/28 10:20:29;;;;;;;26.75;5.25;;;11.70;99.90;;;;;;5054353;28;20110;-48
2023/12/28 10:22:55;;;;;;;30.25;6.45;;;11.70;99.90;;;;;;5058447;28;20040;-48
2023/12/28 10:25:20;;;;;;;21.70;4.55;;;11.70;99.90;;;;;;5057104;28;20150;-50
2023/12/28 10:27:50;;;;;;;31.05;4.93;;;11.70;99.90;;;;;;5060329;28;20994;-50
2023/12/28 10:30:16;;;;;;;25.30;5.07;;;11.70;99.90;;;;;;5037862;28;20063;-50
2023/12/28 10:32:42;;;;;;;26.92;5.18;;;11.70;99.90;;;;;;5061948;28;20049;-50
2023/12/28 10:35:08;;;;;;;29.25;5.25;;;11.70;99.90;;;;;;5058746;28;20525;-51
2023/12/28 10:37:37;;;;;;;27.38;5.65;;;11.70;99.90;;;;;;5011033;28;20055;-49
2023/12/28 10:40:06;;;;;;;26.42;4.40;;;11.70;99.90;;;;;;5050147;28;20064;-48
2023/12/28 10:42:34;;;;;;;29.65;4.35;;;11.70;99.90;;;;;;5061436;28;20780;-47
2023/12/28 10:45:07;;;;;;;26.33;5.00;;;11.70;99.90;;;;;;5061935;28;20036;-47
2023/12/28 10:47:36;;;;;;;27.63;4.75;;;11.70;99.90;;;;;;5061438;28;20147;-47
2023/12/28 10:50:06;;;;;;;22.20;4.85;;;11.70;99.90;;;;;;5055972;28;20040;-51
2023/12/28 10:52:33;;;;;;;32.65;5.60;;;11.70;99.90;;;;;;5038954;28;20514;-50
2023/12/28 10:55:45;;;;;;;24.92;4.78;;;11.70;99.90;;;;;;5058951;28;20548;-50
2023/12/28 10:58:23;;;;;;;25.13;4.47;;;11.70;99.90;;;;;;5060884;28;20048;-47
2023/12/28 11:01:01;;;;;;;25.92;4.28;;;11.70;99.90;;;;;;5056231;28;20135;-50
2023/12/28 11:03:35;;;;;;;27.20;4.57;;;11.70;99.90;;;;;;5060835;28;20115;-47
2023/12/28 11:06:04;;;;;;;30.75;4.25;;;11.70;99.90;;;;;;5061924;28;20079;-52
2023/12/28 11:08:32;;;;;;;28.15;4.80;;;11.70;99.90;;;;;;5061339;28;20044;-51
2023/12/28 11:11:01;;;;;;;31.50;5.90;;;11.70;99.90;;;;;;5061345;28;20044;-52
2023/12/28 11:13:30;;;;;;;33.00;5.03;;;11.70;99.90;;;;;;5060120;28;20033;-52
2023/12/28 11:15:57;;;;;;;28.85;5.05;;;11.70;99.90;;;;;;5050766;28;20070;-53
2023/12/28 11:18:25;;;;;;;28.30;5.65;;;11.70;99.90;;;;;;5050777;28;20036;-52
2023/12/28 11:20:51;;;;;;;23.88;4.47;;;11.70;99.90;;;;;;5051340;28;20044;-51
2023/12/28 11:23:17;;;;;;;19.48;4.60;;;11.70;99.90;;;;;;5060588;28;20050;-53
2023/12/28 11:25:43;;;;;;;23.10;5.43;;;11.70;99.90;;;;;;5054707;28;20045;-52
2023/12/28 11:28:10;;;;;;;18.75;5.35;;;11.70;99.90;;;;;;5060511;28;20051;-53
2023/12/28 11:30:37;;;;;;;30.23;6.03;;;11.80;99.90;;;;;;5060285;28;20135;-52
2023/12/28 11:33:05;;;;;;;26.48;4.85;;;11.70;99.90;;;;;;5059160;28;20176;-52
2023/12/28 11:35:36;;;;;;;23.35;4.20;;;11.70;99.90;;;;;;5058276;28;20044;-51
2023/12/28 11:38:06;;;;;;;25.50;5.47;;;11.80;99.90;;;;;;5061002;28;20054;-50
2023/12/28 11:40:39;;;;;;;27.05;4.30;;;11.70;99.90;;;;;;5056459;28;20080;-51
2023/12/28 11:43:18;;;;;;;33.42;6.03;;;11.60;99.90;;;;;;5061298;28;20054;-50
2023/12/28 11:45:51;;;;;;;27.63;4.82;;;11.60;99.90;;;;;;5060868;28;20067;-50
2023/12/28 11:48:28;;;;;;;21.27;4.45;;;11.40;99.90;;;;;;5057151;28;20394;-49
2023/12/28 11:51:00;;;;;;;18.95;4.40;;;11.40;99.90;;;;;;5059532;28;20049;-48
2023/12/28 11:53:27;;;;;;;27.83;4.35;;;11.40;99.90;;;;;;5052780;28;20125;-50
2023/12/28 11:56:00;;;;;;;21.88;4.10;;;11.40;99.90;;;;;;5053484;28;20472;-47
2023/12/28 11:58:26;;;;;;;22.27;4.38;;;11.40;99.90;;;;;;5061318;28;20041;-52
2023/12/28 12:00:52;;;;;;;28.02;4.68;;;11.50;99.90;;;;;;5058541;28;20040;-47
2023/12/28 12:03:17;;;;;;;26.45;4.80;;;11.50;99.90;;;;;;5057761;28;20044;-50
2023/12/28 12:05:43;;;;;;;29.20;4.40;;;11.50;99.90;;;;;;5058560;28;20090;-48
2023/12/28 12:08:14;;;;;;;19.00;3.80;;;11.50;99.90;;;;;;5061283;28;20044;-53
2023/12/28 12:10:41;;;;;;;25.48;4.60;;;11.50;99.90;;;;;;5060706;28;20101;-50
2023/12/28 12:13:08;;;;;;;29.02;5.28;;;11.50;99.90;;;;;;5057862;28;20068;-53
2023/12/28 12:15:34;;;;;;;29.88;5.32;;;11.50;99.90;;;;;;5058081;28;20548;-50
2023/12/28 12:18:04;;;;;;;30.73;5.28;;;11.50;99.90;;;;;;5055953;28;20076;-49
2023/12/28 12:20:30;;;;;;;30.85;5.10;;;11.40;99.90;;;;;;5054374;28;20036;-49
2023/12/28 12:23:00;;;;;;;23.88;4.47;;;11.40;99.90;;;;;;5060547;28;20055;-52
2023/12/28 12:25:26;;;;;;;29.75;5.30;;;11.40;99.90;;;;;;5041793;28;20503;-53
2023/12/28 12:27:52;;;;;;;27.65;5.15;;;11.40;99.90;;;;;;5060633;28;20044;-50
2023/12/28 12:30:19;;;;;;;26.55;5.05;;;11.40;99.90;;;;;;5056794;28;20086;-52
2023/12/28 12:32:45;;;;;;;33.78;5.88;;;11.40;99.90;;;;;;5057784;28;20048;-51
2023/12/28 12:35:11;;;;;;;26.77;5.22;;;11.40;99.90;;;;;;5061025;28;20087;-54